sensor_id;sensor_type;location;lat;lon;timestamp;P1;durP1;ratioP1;P2;durP2;ratioP2
79490;SDS011;73788;53.048;18.472;2023-12-20T00:00:37;6.80;;;4.00;;
79490;SDS011;73788;53.048;18.472;2023-12-20T00:03:24;6.80;;;3.30;;
79490;SDS011;73788;53.048;18.472;2023-12-20T00:05:51;6.50;;;3.30;;
79490;SDS011;73788;53.048;18.472;2023-12-20T00:08:19;7.20;;;3.40;;
79490;SDS011;73788;53.048;18.472;2023-12-20T00:10:46;8.10;;;4.10;;
79490;SDS011;73788;53.048;18.472;2023-12-20T00:13:13;7.70;;;4.40;;
79490;SDS011;73788;53.048;18.472;2023-12-20T00:15:40;7.20;;;3.90;;
79490;SDS011;73788;53.048;18.472;2023-12-20T00:18:07;7.40;;;4.20;;
79490;SDS011;73788;53.048;18.472;2023-12-20T00:20:34;7.10;;;3.30;;
79490;SDS011;73788;53.048;18.472;2023-12-20T00:23:01;7.00;;;3.30;;
79490;SDS011;73788;53.048;18.472;2023-12-20T00:25:29;6.00;;;3.40;;
79490;SDS011;73788;53.048;18.472;2023-12-20T00:27:56;6.60;;;3.60;;
79490;SDS011;73788;53.048;18.472;2023-12-20T00:30:24;6.50;;;3.50;;
79490;SDS011;73788;53.048;18.472;2023-12-20T00:32:51;6.30;;;3.40;;
79490;SDS011;73788;53.048;18.472;2023-12-20T00:35:18;6.90;;;4.10;;
79490;SDS011;73788;53.048;18.472;2023-12-20T00:37:45;6.60;;;3.00;;
79490;SDS011;73788;53.048;18.472;2023-12-20T00:40:12;6.80;;;3.60;;
79490;SDS011;73788;53.048;18.472;2023-12-20T00:42:40;6.40;;;3.00;;
79490;SDS011;73788;53.048;18.472;2023-12-20T00:45:07;5.60;;;2.90;;
79490;SDS011;73788;53.048;18.472;2023-12-20T00:47:34;5.60;;;3.00;;
79490;SDS011;73788;53.048;18.472;2023-12-20T00:50:02;5.50;;;3.20;;
79490;SDS011;73788;53.048;18.472;2023-12-20T00:52:30;5.50;;;2.60;;
79490;SDS011;73788;53.048;18.472;2023-12-20T00:54:57;5.80;;;3.10;;
79490;SDS011;73788;53.048;18.472;2023-12-20T00:57:24;6.20;;;3.00;;
79490;SDS011;73788;53.048;18.472;2023-12-20T00:59:52;5.70;;;2.80;;
79490;SDS011;73788;53.048;18.472;2023-12-20T01:02:19;5.50;;;2.60;;
79490;SDS011;73788;53.048;18.472;2023-12-20T01:04:46;5.80;;;2.70;;
79490;SDS011;73788;53.048;18.472;2023-12-20T01:07:13;4.70;;;2.30;;
79490;SDS011;73788;53.048;18.472;2023-12-20T01:09:40;6.20;;;2.90;;
79490;SDS011;73788;53.048;18.472;2023-12-20T01:12:07;5.40;;;2.20;;
79490;SDS011;73788;53.048;18.472;2023-12-20T01:14:34;5.00;;;2.10;;
79490;SDS011;73788;53.048;18.472;2023-12-20T01:17:01;4.70;;;2.00;;
79490;SDS011;73788;53.048;18.472;2023-12-20T01:19:29;4.80;;;2.50;;
79490;SDS011;73788;53.048;18.472;2023-12-20T01:21:56;4.90;;;2.40;;
79490;SDS011;73788;53.048;18.472;2023-12-20T01:24:23;5.70;;;2.50;;
79490;SDS011;73788;53.048;18.472;2023-12-20T01:26:50;5.10;;;2.70;;
79490;SDS011;73788;53.048;18.472;2023-12-20T01:29:17;5.30;;;2.70;;
79490;SDS011;73788;53.048;18.472;2023-12-20T01:31:44;4.70;;;2.30;;
79490;SDS011;73788;53.048;18.472;2023-12-20T01:34:12;5.50;;;2.70;;
79490;SDS011;73788;53.048;18.472;2023-12-20T01:36:39;4.60;;;2.30;;
79490;SDS011;73788;53.048;18.472;2023-12-20T01:39:06;4.70;;;2.30;;
79490;SDS011;73788;53.048;18.472;2023-12-20T01:41:33;5.10;;;2.50;;
79490;SDS011;73788;53.048;18.472;2023-12-20T01:44:00;5.40;;;2.30;;
79490;SDS011;73788;53.048;18.472;2023-12-20T01:46:28;4.70;;;2.30;;
79490;SDS011;73788;53.048;18.472;2023-12-20T01:48:55;5.40;;;2.50;;
79490;SDS011;73788;53.048;18.472;2023-12-20T01:51:22;5.10;;;2.20;;
79490;SDS011;73788;53.048;18.472;2023-12-20T01:53:49;4.90;;;2.30;;
79490;SDS011;73788;53.048;18.472;2023-12-20T01:56:17;4.30;;;2.00;;
79490;SDS011;73788;53.048;18.472;2023-12-20T01:58:45;4.40;;;2.10;;
79490;SDS011;73788;53.048;18.472;2023-12-20T02:01:13;5.10;;;2.60;;
79490;SDS011;73788;53.048;18.472;2023-12-20T02:03:41;4.80;;;2.30;;
79490;SDS011;73788;53.048;18.472;2023-12-20T02:06:09;4.40;;;2.30;;
79490;SDS011;73788;53.048;18.472;2023-12-20T02:08:36;4.20;;;2.20;;
79490;SDS011;73788;53.048;18.472;2023-12-20T02:11:03;4.90;;;1.80;;
79490;SDS011;73788;53.048;18.472;2023-12-20T02:13:31;5.20;;;1.80;;
79490;SDS011;73788;53.048;18.472;2023-12-20T02:16:00;4.20;;;2.10;;
79490;SDS011;73788;53.048;18.472;2023-12-20T02:18:27;4.10;;;1.90;;
79490;SDS011;73788;53.048;18.472;2023-12-20T02:20:54;4.00;;;1.70;;
79490;SDS011;73788;53.048;18.472;2023-12-20T02:23:22;5.30;;;2.50;;
79490;SDS011;73788;53.048;18.472;2023-12-20T02:25:49;4.60;;;2.40;;
79490;SDS011;73788;53.048;18.472;2023-12-20T02:28:16;4.50;;;2.30;;
79490;SDS011;73788;53.048;18.472;2023-12-20T02:30:43;5.10;;;2.50;;
79490;SDS011;73788;53.048;18.472;2023-12-20T02:33:12;4.30;;;2.00;;
79490;SDS011;73788;53.048;18.472;2023-12-20T02:35:40;4.50;;;2.20;;
79490;SDS011;73788;53.048;18.472;2023-12-20T02:38:08;3.50;;;1.60;;
79490;SDS011;73788;53.048;18.472;2023-12-20T02:40:35;3.80;;;1.50;;
79490;SDS011;73788;53.048;18.472;2023-12-20T02:43:02;4.60;;;1.80;;
79490;SDS011;73788;53.048;18.472;2023-12-20T02:45:29;4.40;;;2.10;;
79490;SDS011;73788;53.048;18.472;2023-12-20T02:47:57;5.20;;;2.20;;
79490;SDS011;73788;53.048;18.472;2023-12-20T02:50:24;4.10;;;1.80;;
79490;SDS011;73788;53.048;18.472;2023-12-20T02:52:51;4.20;;;1.90;;
79490;SDS011;73788;53.048;18.472;2023-12-20T02:55:18;4.30;;;1.90;;
79490;SDS011;73788;53.048;18.472;2023-12-20T02:57:45;4.50;;;2.10;;
79490;SDS011;73788;53.048;18.472;2023-12-20T03:00:12;4.50;;;2.00;;
79490;SDS011;73788;53.048;18.472;2023-12-20T03:02:40;5.40;;;2.10;;
79490;SDS011;73788;53.048;18.472;2023-12-20T03:05:07;4.00;;;1.80;;
79490;SDS011;73788;53.048;18.472;2023-12-20T03:07:36;4.60;;;2.40;;
79490;SDS011;73788;53.048;18.472;2023-12-20T03:10:05;4.60;;;2.00;;
79490;SDS011;73788;53.048;18.472;2023-12-20T03:12:34;4.20;;;1.70;;
79490;SDS011;73788;53.048;18.472;2023-12-20T03:15:01;3.90;;;1.60;;
79490;SDS011;73788;53.048;18.472;2023-12-20T03:17:28;4.60;;;2.10;;
79490;SDS011;73788;53.048;18.472;2023-12-20T03:19:55;4.70;;;2.40;;
79490;SDS011;73788;53.048;18.472;2023-12-20T03:22:22;5.80;;;2.10;;
79490;SDS011;73788;53.048;18.472;2023-12-20T03:24:49;5.30;;;2.60;;
79490;SDS011;73788;53.048;18.472;2023-12-20T03:27:16;4.40;;;2.20;;
79490;SDS011;73788;53.048;18.472;2023-12-20T03:29:43;4.50;;;2.30;;
79490;SDS011;73788;53.048;18.472;2023-12-20T03:32:10;4.20;;;2.00;;
79490;SDS011;73788;53.048;18.472;2023-12-20T03:34:38;4.30;;;1.70;;
79490;SDS011;73788;53.048;18.472;2023-12-20T03:37:05;4.40;;;2.20;;
79490;SDS011;73788;53.048;18.472;2023-12-20T03:39:32;3.70;;;1.80;;
79490;SDS011;73788;53.048;18.472;2023-12-20T03:41:59;4.30;;;1.70;;
79490;SDS011;73788;53.048;18.472;2023-12-20T03:44:26;5.50;;;2.40;;
79490;SDS011;73788;53.048;18.472;2023-12-20T03:46:53;4.50;;;2.40;;
79490;SDS011;73788;53.048;18.472;2023-12-20T03:49:20;4.50;;;2.10;;
79490;SDS011;73788;53.048;18.472;2023-12-20T03:51:47;5.20;;;2.20;;
79490;SDS011;73788;53.048;18.472;2023-12-20T03:54:14;5.00;;;2.20;;
79490;SDS011;73788;53.048;18.472;2023-12-20T03:56:41;4.00;;;2.10;;
79490;SDS011;73788;53.048;18.472;2023-12-20T03:59:09;4.20;;;2.20;;
79490;SDS011;73788;53.048;18.472;2023-12-20T04:01:36;4.30;;;2.00;;
79490;SDS011;73788;53.048;18.472;2023-12-20T04:04:06;5.00;;;2.60;;
79490;SDS011;73788;53.048;18.472;2023-12-20T04:06:33;4.20;;;1.90;;
79490;SDS011;73788;53.048;18.472;2023-12-20T04:09:00;4.60;;;2.60;;
79490;SDS011;73788;53.048;18.472;2023-12-20T04:11:27;4.70;;;2.50;;
79490;SDS011;73788;53.048;18.472;2023-12-20T04:13:54;4.50;;;2.40;;
79490;SDS011;73788;53.048;18.472;2023-12-20T04:16:21;4.70;;;2.50;;
79490;SDS011;73788;53.048;18.472;2023-12-20T04:18:48;5.90;;;2.20;;
79490;SDS011;73788;53.048;18.472;2023-12-20T04:21:16;4.20;;;2.00;;
79490;SDS011;73788;53.048;18.472;2023-12-20T04:23:43;4.00;;;1.70;;
79490;SDS011;73788;53.048;18.472;2023-12-20T04:26:10;3.90;;;1.90;;
79490;SDS011;73788;53.048;18.472;2023-12-20T04:28:37;4.10;;;1.70;;
79490;SDS011;73788;53.048;18.472;2023-12-20T04:31:04;4.60;;;2.30;;
79490;SDS011;73788;53.048;18.472;2023-12-20T04:33:31;3.90;;;2.00;;
79490;SDS011;73788;53.048;18.472;2023-12-20T04:35:58;3.80;;;1.60;;
79490;SDS011;73788;53.048;18.472;2023-12-20T04:38:26;4.00;;;2.00;;
79490;SDS011;73788;53.048;18.472;2023-12-20T04:40:53;4.40;;;1.90;;
79490;SDS011;73788;53.048;18.472;2023-12-20T04:43:21;3.90;;;1.80;;
79490;SDS011;73788;53.048;18.472;2023-12-20T04:45:48;4.10;;;2.00;;
79490;SDS011;73788;53.048;18.472;2023-12-20T04:48:15;3.90;;;1.70;;
79490;SDS011;73788;53.048;18.472;2023-12-20T04:50:42;3.80;;;1.70;;
79490;SDS011;73788;53.048;18.472;2023-12-20T04:53:09;4.10;;;1.90;;
79490;SDS011;73788;53.048;18.472;2023-12-20T04:55:36;5.50;;;2.30;;
79490;SDS011;73788;53.048;18.472;2023-12-20T04:58:03;3.80;;;1.80;;
79490;SDS011;73788;53.048;18.472;2023-12-20T05:00:30;5.00;;;2.00;;
79490;SDS011;73788;53.048;18.472;2023-12-20T05:02:58;5.00;;;2.10;;
79490;SDS011;73788;53.048;18.472;2023-12-20T05:05:27;4.50;;;2.00;;
79490;SDS011;73788;53.048;18.472;2023-12-20T05:07:56;4.60;;;2.00;;
79490;SDS011;73788;53.048;18.472;2023-12-20T05:10:23;4.90;;;2.00;;
79490;SDS011;73788;53.048;18.472;2023-12-20T05:12:50;4.10;;;1.80;;
79490;SDS011;73788;53.048;18.472;2023-12-20T05:15:17;4.20;;;2.10;;
79490;SDS011;73788;53.048;18.472;2023-12-20T05:17:44;4.20;;;1.30;;
79490;SDS011;73788;53.048;18.472;2023-12-20T05:20:12;4.10;;;1.60;;
79490;SDS011;73788;53.048;18.472;2023-12-20T05:22:39;3.60;;;1.50;;
79490;SDS011;73788;53.048;18.472;2023-12-20T05:25:07;3.20;;;1.20;;
79490;SDS011;73788;53.048;18.472;2023-12-20T05:27:34;3.10;;;1.20;;
79490;SDS011;73788;53.048;18.472;2023-12-20T05:30:02;3.70;;;1.10;;
79490;SDS011;73788;53.048;18.472;2023-12-20T05:32:31;3.40;;;1.30;;
79490;SDS011;73788;53.048;18.472;2023-12-20T05:34:58;2.70;;;0.90;;
79490;SDS011;73788;53.048;18.472;2023-12-20T05:37:25;2.70;;;0.80;;
79490;SDS011;73788;53.048;18.472;2023-12-20T05:39:52;2.50;;;0.60;;
79490;SDS011;73788;53.048;18.472;2023-12-20T05:42:19;3.10;;;1.00;;
79490;SDS011;73788;53.048;18.472;2023-12-20T05:44:46;2.60;;;0.80;;
79490;SDS011;73788;53.048;18.472;2023-12-20T05:47:13;2.80;;;0.90;;
79490;SDS011;73788;53.048;18.472;2023-12-20T05:49:41;2.50;;;0.70;;
79490;SDS011;73788;53.048;18.472;2023-12-20T05:52:08;2.70;;;0.80;;
79490;SDS011;73788;53.048;18.472;2023-12-20T05:54:35;2.80;;;0.70;;
79490;SDS011;73788;53.048;18.472;2023-12-20T05:57:02;2.20;;;0.60;;
79490;SDS011;73788;53.048;18.472;2023-12-20T05:59:30;3.50;;;0.70;;
79490;SDS011;73788;53.048;18.472;2023-12-20T06:01:57;2.90;;;0.70;;
79490;SDS011;73788;53.048;18.472;2023-12-20T06:04:24;3.20;;;0.80;;
79490;SDS011;73788;53.048;18.472;2023-12-20T06:06:51;2.90;;;0.80;;
79490;SDS011;73788;53.048;18.472;2023-12-20T06:09:18;2.60;;;0.60;;
79490;SDS011;73788;53.048;18.472;2023-12-20T06:11:46;2.90;;;0.70;;
79490;SDS011;73788;53.048;18.472;2023-12-20T06:14:13;2.50;;;0.60;;
79490;SDS011;73788;53.048;18.472;2023-12-20T06:16:40;3.10;;;0.60;;
79490;SDS011;73788;53.048;18.472;2023-12-20T06:19:07;2.60;;;0.60;;
79490;SDS011;73788;53.048;18.472;2023-12-20T06:21:34;3.30;;;0.60;;
79490;SDS011;73788;53.048;18.472;2023-12-20T06:24:01;2.40;;;0.70;;
79490;SDS011;73788;53.048;18.472;2023-12-20T06:26:28;2.70;;;0.60;;
79490;SDS011;73788;53.048;18.472;2023-12-20T06:28:55;2.90;;;0.90;;
79490;SDS011;73788;53.048;18.472;2023-12-20T06:31:22;3.20;;;0.60;;
79490;SDS011;73788;53.048;18.472;2023-12-20T06:33:49;3.10;;;0.60;;
79490;SDS011;73788;53.048;18.472;2023-12-20T06:36:23;3.20;;;0.80;;
79490;SDS011;73788;53.048;18.472;2023-12-20T06:38:51;3.70;;;1.00;;
79490;SDS011;73788;53.048;18.472;2023-12-20T06:41:18;3.40;;;0.80;;
79490;SDS011;73788;53.048;18.472;2023-12-20T06:43:45;2.50;;;0.70;;
79490;SDS011;73788;53.048;18.472;2023-12-20T06:46:13;2.80;;;0.80;;
79490;SDS011;73788;53.048;18.472;2023-12-20T06:48:40;3.00;;;0.90;;
79490;SDS011;73788;53.048;18.472;2023-12-20T06:51:12;3.20;;;1.10;;
79490;SDS011;73788;53.048;18.472;2023-12-20T06:53:41;5.20;;;1.20;;
79490;SDS011;73788;53.048;18.472;2023-12-20T06:56:10;5.70;;;1.80;;
79490;SDS011;73788;53.048;18.472;2023-12-20T06:58:38;4.20;;;1.40;;
79490;SDS011;73788;53.048;18.472;2023-12-20T07:01:05;4.50;;;1.50;;
79490;SDS011;73788;53.048;18.472;2023-12-20T07:03:37;5.00;;;1.40;;
79490;SDS011;73788;53.048;18.472;2023-12-20T07:06:04;4.30;;;1.40;;
79490;SDS011;73788;53.048;18.472;2023-12-20T07:08:31;4.20;;;1.40;;
79490;SDS011;73788;53.048;18.472;2023-12-20T07:10:58;4.10;;;1.50;;
79490;SDS011;73788;53.048;18.472;2023-12-20T07:13:25;4.60;;;1.30;;
79490;SDS011;73788;53.048;18.472;2023-12-20T07:15:52;4.50;;;1.40;;
79490;SDS011;73788;53.048;18.472;2023-12-20T07:18:19;4.60;;;1.40;;
79490;SDS011;73788;53.048;18.472;2023-12-20T07:20:46;3.50;;;1.20;;
79490;SDS011;73788;53.048;18.472;2023-12-20T07:23:14;4.00;;;1.20;;
79490;SDS011;73788;53.048;18.472;2023-12-20T07:25:41;5.80;;;1.20;;
79490;SDS011;73788;53.048;18.472;2023-12-20T07:28:08;4.60;;;1.20;;
79490;SDS011;73788;53.048;18.472;2023-12-20T07:30:37;4.50;;;1.40;;
79490;SDS011;73788;53.048;18.472;2023-12-20T07:33:04;4.80;;;1.50;;
79490;SDS011;73788;53.048;18.472;2023-12-20T07:35:31;3.00;;;1.00;;
79490;SDS011;73788;53.048;18.472;2023-12-20T07:37:58;5.20;;;1.40;;
79490;SDS011;73788;53.048;18.472;2023-12-20T07:40:25;4.40;;;1.10;;
79490;SDS011;73788;53.048;18.472;2023-12-20T07:42:52;4.00;;;1.00;;
79490;SDS011;73788;53.048;18.472;2023-12-20T07:45:19;3.80;;;1.40;;
79490;SDS011;73788;53.048;18.472;2023-12-20T07:47:46;4.20;;;1.00;;
79490;SDS011;73788;53.048;18.472;2023-12-20T07:50:13;3.40;;;0.80;;
79490;SDS011;73788;53.048;18.472;2023-12-20T07:52:41;4.10;;;1.10;;
79490;SDS011;73788;53.048;18.472;2023-12-20T07:55:08;4.00;;;1.40;;
79490;SDS011;73788;53.048;18.472;2023-12-20T07:57:35;3.90;;;1.10;;
79490;SDS011;73788;53.048;18.472;2023-12-20T08:00:02;4.00;;;1.20;;
79490;SDS011;73788;53.048;18.472;2023-12-20T08:02:30;5.80;;;1.30;;
79490;SDS011;73788;53.048;18.472;2023-12-20T08:04:57;5.00;;;1.60;;
79490;SDS011;73788;53.048;18.472;2023-12-20T08:07:24;6.50;;;2.10;;
79490;SDS011;73788;53.048;18.472;2023-12-20T08:09:51;7.20;;;2.80;;
79490;SDS011;73788;53.048;18.472;2023-12-20T08:12:19;6.40;;;2.30;;
79490;SDS011;73788;53.048;18.472;2023-12-20T08:14:46;5.40;;;2.00;;
79490;SDS011;73788;53.048;18.472;2023-12-20T08:17:13;3.80;;;1.40;;
79490;SDS011;73788;53.048;18.472;2023-12-20T08:19:42;4.10;;;1.40;;
79490;SDS011;73788;53.048;18.472;2023-12-20T08:22:10;4.40;;;1.60;;
79490;SDS011;73788;53.048;18.472;2023-12-20T08:24:37;5.80;;;1.30;;
79490;SDS011;73788;53.048;18.472;2023-12-20T08:27:04;3.80;;;1.50;;
79490;SDS011;73788;53.048;18.472;2023-12-20T08:29:31;5.10;;;1.30;;
79490;SDS011;73788;53.048;18.472;2023-12-20T08:31:59;3.90;;;1.30;;
79490;SDS011;73788;53.048;18.472;2023-12-20T08:34:26;4.70;;;1.40;;
79490;SDS011;73788;53.048;18.472;2023-12-20T08:36:53;5.10;;;1.70;;
79490;SDS011;73788;53.048;18.472;2023-12-20T08:39:21;7.30;;;2.80;;
79490;SDS011;73788;53.048;18.472;2023-12-20T08:41:48;8.00;;;2.70;;
79490;SDS011;73788;53.048;18.472;2023-12-20T08:44:15;6.60;;;2.20;;
79490;SDS011;73788;53.048;18.472;2023-12-20T08:46:42;8.50;;;3.10;;
79490;SDS011;73788;53.048;18.472;2023-12-20T08:49:09;5.70;;;2.50;;
79490;SDS011;73788;53.048;18.472;2023-12-20T08:51:37;6.30;;;2.20;;
79490;SDS011;73788;53.048;18.472;2023-12-20T08:54:06;5.40;;;2.30;;
79490;SDS011;73788;53.048;18.472;2023-12-20T08:56:36;7.20;;;2.30;;
79490;SDS011;73788;53.048;18.472;2023-12-20T08:59:03;5.20;;;2.40;;
79490;SDS011;73788;53.048;18.472;2023-12-20T09:01:31;5.10;;;2.20;;
79490;SDS011;73788;53.048;18.472;2023-12-20T09:03:58;5.40;;;2.00;;
79490;SDS011;73788;53.048;18.472;2023-12-20T09:06:25;5.80;;;1.80;;
79490;SDS011;73788;53.048;18.472;2023-12-20T09:08:52;5.00;;;1.80;;
79490;SDS011;73788;53.048;18.472;2023-12-20T09:11:19;5.20;;;1.70;;
79490;SDS011;73788;53.048;18.472;2023-12-20T09:13:47;4.50;;;1.60;;
79490;SDS011;73788;53.048;18.472;2023-12-20T09:16:15;4.30;;;1.30;;
79490;SDS011;73788;53.048;18.472;2023-12-20T09:18:42;4.40;;;1.70;;
79490;SDS011;73788;53.048;18.472;2023-12-20T09:21:09;4.40;;;1.40;;
79490;SDS011;73788;53.048;18.472;2023-12-20T09:23:36;4.50;;;1.60;;
79490;SDS011;73788;53.048;18.472;2023-12-20T09:26:04;5.50;;;1.60;;
79490;SDS011;73788;53.048;18.472;2023-12-20T09:28:31;4.30;;;1.60;;
79490;SDS011;73788;53.048;18.472;2023-12-20T09:31:04;5.10;;;1.80;;
79490;SDS011;73788;53.048;18.472;2023-12-20T09:33:34;6.80;;;2.00;;
79490;SDS011;73788;53.048;18.472;2023-12-20T09:36:02;5.20;;;2.20;;
79490;SDS011;73788;53.048;18.472;2023-12-20T09:38:29;4.40;;;1.90;;
79490;SDS011;73788;53.048;18.472;2023-12-20T09:40:56;4.60;;;2.00;;
79490;SDS011;73788;53.048;18.472;2023-12-20T09:43:24;5.40;;;1.90;;
79490;SDS011;73788;53.048;18.472;2023-12-20T09:46:00;4.50;;;1.70;;
79490;SDS011;73788;53.048;18.472;2023-12-20T09:48:29;5.30;;;1.90;;
79490;SDS011;73788;53.048;18.472;2023-12-20T09:50:57;6.60;;;2.00;;
79490;SDS011;73788;53.048;18.472;2023-12-20T09:53:25;4.80;;;1.90;;
79490;SDS011;73788;53.048;18.472;2023-12-20T09:55:59;6.30;;;1.90;;
79490;SDS011;73788;53.048;18.472;2023-12-20T09:58:27;5.70;;;1.90;;
79490;SDS011;73788;53.048;18.472;2023-12-20T10:00:55;5.10;;;1.90;;
79490;SDS011;73788;53.048;18.472;2023-12-20T10:03:25;6.40;;;1.60;;
79490;SDS011;73788;53.048;18.472;2023-12-20T10:05:56;6.00;;;2.10;;
79490;SDS011;73788;53.048;18.472;2023-12-20T10:08:24;5.00;;;1.80;;
79490;SDS011;73788;53.048;18.472;2023-12-20T10:10:52;5.20;;;1.70;;
79490;SDS011;73788;53.048;18.472;2023-12-20T10:13:19;4.10;;;1.30;;
79490;SDS011;73788;53.048;18.472;2023-12-20T10:15:46;5.30;;;1.90;;
79490;SDS011;73788;53.048;18.472;2023-12-20T10:18:13;5.00;;;1.80;;
79490;SDS011;73788;53.048;18.472;2023-12-20T10:20:43;5.80;;;2.10;;
79490;SDS011;73788;53.048;18.472;2023-12-20T10:23:11;4.60;;;1.80;;
79490;SDS011;73788;53.048;18.472;2023-12-20T10:25:40;6.10;;;2.10;;
79490;SDS011;73788;53.048;18.472;2023-12-20T10:28:15;7.20;;;1.90;;
79490;SDS011;73788;53.048;18.472;2023-12-20T10:30:49;5.60;;;2.00;;
79490;SDS011;73788;53.048;18.472;2023-12-20T10:33:27;4.50;;;1.80;;
79490;SDS011;73788;53.048;18.472;2023-12-20T10:35:56;6.00;;;2.20;;
79490;SDS011;73788;53.048;18.472;2023-12-20T10:38:24;5.80;;;2.10;;
79490;SDS011;73788;53.048;18.472;2023-12-20T10:40:54;6.90;;;2.00;;
79490;SDS011;73788;53.048;18.472;2023-12-20T10:43:28;4.30;;;1.80;;
79490;SDS011;73788;53.048;18.472;2023-12-20T10:45:57;4.80;;;1.60;;
79490;SDS011;73788;53.048;18.472;2023-12-20T10:48:26;4.90;;;1.90;;
79490;SDS011;73788;53.048;18.472;2023-12-20T10:50:57;5.50;;;2.00;;
79490;SDS011;73788;53.048;18.472;2023-12-20T10:53:25;3.90;;;1.40;;
79490;SDS011;73788;53.048;18.472;2023-12-20T10:55:55;4.90;;;1.90;;
79490;SDS011;73788;53.048;18.472;2023-12-20T10:58:27;5.20;;;1.90;;
79490;SDS011;73788;53.048;18.472;2023-12-20T11:01:00;5.50;;;2.10;;
79490;SDS011;73788;53.048;18.472;2023-12-20T11:03:35;5.50;;;1.90;;
79490;SDS011;73788;53.048;18.472;2023-12-20T11:06:18;8.20;;;2.30;;
79490;SDS011;73788;53.048;18.472;2023-12-20T11:12:13;5.30;;;1.60;;
79490;SDS011;73788;53.048;18.472;2023-12-20T11:14:50;5.80;;;1.80;;
79490;SDS011;73788;53.048;18.472;2023-12-20T11:17:22;7.40;;;2.20;;
79490;SDS011;73788;53.048;18.472;2023-12-20T11:22:33;4.00;;;1.60;;
79490;SDS011;73788;53.048;18.472;2023-12-20T11:25:06;6.40;;;1.60;;
79490;SDS011;73788;53.048;18.472;2023-12-20T11:27:40;5.80;;;1.90;;
79490;SDS011;73788;53.048;18.472;2023-12-20T11:30:09;5.10;;;2.00;;
79490;SDS011;73788;53.048;18.472;2023-12-20T11:32:37;6.50;;;2.00;;
79490;SDS011;73788;53.048;18.472;2023-12-20T11:37:38;5.70;;;1.60;;
79490;SDS011;73788;53.048;18.472;2023-12-20T11:40:14;4.50;;;1.50;;
79490;SDS011;73788;53.048;18.472;2023-12-20T11:42:50;5.40;;;1.90;;
79490;SDS011;73788;53.048;18.472;2023-12-20T11:45:19;6.70;;;1.80;;
79490;SDS011;73788;53.048;18.472;2023-12-20T11:47:49;5.50;;;1.90;;
79490;SDS011;73788;53.048;18.472;2023-12-20T11:50:17;5.70;;;1.30;;
79490;SDS011;73788;53.048;18.472;2023-12-20T11:52:45;5.60;;;1.60;;
79490;SDS011;73788;53.048;18.472;2023-12-20T11:55:12;4.90;;;1.40;;
79490;SDS011;73788;53.048;18.472;2023-12-20T11:57:40;6.30;;;1.40;;
79490;SDS011;73788;53.048;18.472;2023-12-20T12:00:08;5.30;;;1.70;;
79490;SDS011;73788;53.048;18.472;2023-12-20T12:02:36;5.60;;;1.60;;
79490;SDS011;73788;53.048;18.472;2023-12-20T12:05:04;6.90;;;1.60;;
79490;SDS011;73788;53.048;18.472;2023-12-20T12:07:35;6.10;;;1.60;;
79490;SDS011;73788;53.048;18.472;2023-12-20T12:10:02;4.90;;;1.50;;
79490;SDS011;73788;53.048;18.472;2023-12-20T12:12:30;6.10;;;2.00;;
79490;SDS011;73788;53.048;18.472;2023-12-20T12:14:57;6.40;;;1.70;;
79490;SDS011;73788;53.048;18.472;2023-12-20T12:17:25;8.60;;;1.80;;
79490;SDS011;73788;53.048;18.472;2023-12-20T12:20:02;5.60;;;1.40;;
79490;SDS011;73788;53.048;18.472;2023-12-20T12:22:32;5.60;;;1.30;;
79490;SDS011;73788;53.048;18.472;2023-12-20T12:25:09;6.70;;;1.70;;
79490;SDS011;73788;53.048;18.472;2023-12-20T12:27:40;6.70;;;2.10;;
79490;SDS011;73788;53.048;18.472;2023-12-20T12:30:08;5.00;;;1.70;;
79490;SDS011;73788;53.048;18.472;2023-12-20T12:32:36;6.20;;;1.60;;
79490;SDS011;73788;53.048;18.472;2023-12-20T12:35:04;5.20;;;1.40;;
79490;SDS011;73788;53.048;18.472;2023-12-20T12:37:37;6.00;;;1.50;;
79490;SDS011;73788;53.048;18.472;2023-12-20T12:40:12;3.50;;;0.90;;
79490;SDS011;73788;53.048;18.472;2023-12-20T12:42:42;6.10;;;1.60;;
79490;SDS011;73788;53.048;18.472;2023-12-20T12:45:11;5.60;;;1.50;;
79490;SDS011;73788;53.048;18.472;2023-12-20T12:47:38;5.20;;;1.60;;
79490;SDS011;73788;53.048;18.472;2023-12-20T12:50:06;3.40;;;0.90;;
79490;SDS011;73788;53.048;18.472;2023-12-20T12:52:33;7.80;;;1.60;;
79490;SDS011;73788;53.048;18.472;2023-12-20T12:55:02;6.80;;;1.70;;
79490;SDS011;73788;53.048;18.472;2023-12-20T12:57:30;6.10;;;1.50;;
79490;SDS011;73788;53.048;18.472;2023-12-20T12:59:57;4.30;;;1.50;;
79490;SDS011;73788;53.048;18.472;2023-12-20T13:02:25;5.40;;;1.40;;
79490;SDS011;73788;53.048;18.472;2023-12-20T13:04:53;5.00;;;1.50;;
79490;SDS011;73788;53.048;18.472;2023-12-20T13:07:20;6.60;;;1.70;;
79490;SDS011;73788;53.048;18.472;2023-12-20T13:09:47;5.40;;;1.60;;
79490;SDS011;73788;53.048;18.472;2023-12-20T13:12:14;5.90;;;1.70;;
79490;SDS011;73788;53.048;18.472;2023-12-20T13:14:41;6.60;;;1.40;;
79490;SDS011;73788;53.048;18.472;2023-12-20T13:17:08;5.00;;;1.50;;
79490;SDS011;73788;53.048;18.472;2023-12-20T13:19:35;4.80;;;1.40;;
79490;SDS011;73788;53.048;18.472;2023-12-20T13:22:03;4.10;;;1.40;;
79490;SDS011;73788;53.048;18.472;2023-12-20T13:24:30;7.40;;;1.80;;
79490;SDS011;73788;53.048;18.472;2023-12-20T13:26:59;5.80;;;1.60;;
79490;SDS011;73788;53.048;18.472;2023-12-20T13:29:26;5.80;;;1.50;;
79490;SDS011;73788;53.048;18.472;2023-12-20T13:31:53;3.50;;;1.30;;
79490;SDS011;73788;53.048;18.472;2023-12-20T13:34:21;5.80;;;1.70;;
79490;SDS011;73788;53.048;18.472;2023-12-20T13:36:48;4.60;;;1.50;;
79490;SDS011;73788;53.048;18.472;2023-12-20T13:39:17;4.60;;;1.40;;
79490;SDS011;73788;53.048;18.472;2023-12-20T13:41:44;6.00;;;1.20;;
79490;SDS011;73788;53.048;18.472;2023-12-20T13:44:11;5.30;;;1.70;;
79490;SDS011;73788;53.048;18.472;2023-12-20T13:46:40;5.20;;;1.60;;
79490;SDS011;73788;53.048;18.472;2023-12-20T13:49:08;5.20;;;1.50;;
79490;SDS011;73788;53.048;18.472;2023-12-20T13:51:35;4.30;;;1.10;;
79490;SDS011;73788;53.048;18.472;2023-12-20T13:54:02;4.60;;;1.00;;
79490;SDS011;73788;53.048;18.472;2023-12-20T13:56:29;4.90;;;1.40;;
79490;SDS011;73788;53.048;18.472;2023-12-20T13:58:56;6.30;;;1.70;;
79490;SDS011;73788;53.048;18.472;2023-12-20T14:01:23;5.00;;;1.20;;
79490;SDS011;73788;53.048;18.472;2023-12-20T14:03:50;3.40;;;1.10;;
79490;SDS011;73788;53.048;18.472;2023-12-20T14:06:17;7.70;;;2.10;;
79490;SDS011;73788;53.048;18.472;2023-12-20T14:08:45;5.40;;;1.90;;
79490;SDS011;73788;53.048;18.472;2023-12-20T14:11:12;6.10;;;1.80;;
79490;SDS011;73788;53.048;18.472;2023-12-20T14:13:40;5.80;;;1.80;;
79490;SDS011;73788;53.048;18.472;2023-12-20T14:16:07;4.50;;;1.70;;
79490;SDS011;73788;53.048;18.472;2023-12-20T14:18:34;4.70;;;1.40;;
79490;SDS011;73788;53.048;18.472;2023-12-20T14:21:01;5.70;;;1.50;;
79490;SDS011;73788;53.048;18.472;2023-12-20T14:23:28;7.40;;;2.20;;
79490;SDS011;73788;53.048;18.472;2023-12-20T14:25:55;6.00;;;1.90;;
79490;SDS011;73788;53.048;18.472;2023-12-20T14:28:25;8.00;;;2.30;;
79490;SDS011;73788;53.048;18.472;2023-12-20T14:30:52;7.30;;;2.30;;
79490;SDS011;73788;53.048;18.472;2023-12-20T14:33:19;6.30;;;1.70;;
79490;SDS011;73788;53.048;18.472;2023-12-20T14:35:48;7.80;;;2.40;;
79490;SDS011;73788;53.048;18.472;2023-12-20T14:38:15;7.10;;;2.30;;
79490;SDS011;73788;53.048;18.472;2023-12-20T14:40:42;8.00;;;2.70;;
79490;SDS011;73788;53.048;18.472;2023-12-20T14:43:09;8.60;;;2.20;;
79490;SDS011;73788;53.048;18.472;2023-12-20T14:45:37;8.70;;;2.20;;